Time;durP1;ratioP1;P1;durP2;ratioP2;P2;SDS_P1;SDS_P2;PMS_P1;PMS_P2;Temp;Humidity;BMP_temperature;BMP_pressure;BME280_temperature;BME280_humidity;BME280_pressure;Samples;Min_cycle;Max_cycle;Signal;HPM_P1;HPM_P2
2023/06/14 00:01:51;;;;;;;5.07;2.50;;;15.20;99.40;;;;;;4887672;29;20628;-75
2023/06/14 00:04:20;;;;;;;5.70;2.58;;;15.20;99.90;;;;;;4902189;29;22914;-76
2023/06/14 00:06:50;;;;;;;5.43;2.22;;;15.20;99.90;;;;;;4898011;29;22845;-76
2023/06/14 00:09:18;;;;;;;3.28;2.03;;;15.20;99.90;;;;;;4886250;29;20143;-76
2023/06/14 00:11:45;;;;;;;5.15;2.45;;;15.10;99.90;;;;;;4894489;29;20063;-76
2023/06/14 00:14:12;;;;;;;4.75;2.40;;;15.00;99.90;;;;;;4880339;29;21064;-76
2023/06/14 00:16:42;;;;;;;4.30;2.47;;;15.10;99.90;;;;;;4884870;29;20135;-76
2023/06/14 00:19:10;;;;;;;6.68;2.25;;;15.10;99.90;;;;;;4893289;29;20127;-76
2023/06/14 00:21:38;;;;;;;4.30;2.13;;;15.00;99.90;;;;;;4887858;29;20151;-76
2023/06/14 00:24:05;;;;;;;5.22;2.35;;;14.90;99.90;;;;;;4893874;29;20149;-76
2023/06/14 00:26:32;;;;;;;4.97;2.70;;;15.00;99.90;;;;;;4888990;29;20084;-77
2023/06/14 00:29:00;;;;;;;8.20;3.08;;;14.90;99.90;;;;;;4903125;29;20121;-76
2023/06/14 00:31:27;;;;;;;5.43;2.58;;;14.90;99.90;;;;;;4892307;29;20687;-76
2023/06/14 00:33:54;;;;;;;6.05;2.53;;;15.00;99.90;;;;;;4877609;29;20423;-76
2023/06/14 00:36:21;;;;;;;5.63;2.88;;;14.90;99.90;;;;;;4894572;29;20052;-76
2023/06/14 00:38:48;;;;;;;7.95;2.80;;;14.90;99.90;;;;;;4893228;29;20063;-76
2023/06/14 00:41:15;;;;;;;5.00;2.15;;;14.90;99.90;;;;;;4892321;29;20052;-76
2023/06/14 00:43:43;;;;;;;5.75;2.42;;;14.90;99.90;;;;;;4904122;29;23366;-76
2023/06/14 00:46:10;;;;;;;6.05;2.97;;;15.00;99.90;;;;;;4895440;29;20181;-76
2023/06/14 00:48:39;;;;;;;7.47;3.28;;;14.90;99.90;;;;;;4878476;29;20057;-76
2023/06/14 00:51:07;;;;;;;5.10;2.45;;;14.90;99.90;;;;;;4886750;29;20063;-76
2023/06/14 00:53:35;;;;;;;5.93;2.60;;;14.90;99.90;;;;;;4887083;29;23080;-76
2023/06/14 00:56:03;;;;;;;6.05;2.88;;;15.00;99.90;;;;;;4892553;29;20049;-76
2023/06/14 00:58:32;;;;;;;6.75;2.72;;;15.00;99.90;;;;;;4883139;29;20045;-76
2023/06/14 01:00:59;;;;;;;5.00;2.65;;;14.90;99.90;;;;;;4891581;29;20048;-76
2023/06/14 01:03:28;;;;;;;6.88;3.20;;;14.90;99.90;;;;;;4889863;29;20503;-76
2023/06/14 01:06:44;;;;;;;7.53;3.40;;;14.80;99.90;;;;;;4890288;29;20040;-76
2023/06/14 01:09:33;;;;;;;8.25;3.85;;;14.70;99.90;;;;;;4866437;29;20056;-76
2023/06/14 01:12:29;;;;;;;7.85;3.30;;;14.70;99.90;;;;;;4874689;29;20048;-76
2023/06/14 01:14:59;;;;;;;8.43;3.58;;;14.70;99.90;;;;;;4889277;29;20510;-76
2023/06/14 01:17:31;;;;;;;13.27;3.75;;;14.80;99.90;;;;;;4879096;29;20044;-75
2023/06/14 01:20:01;;;;;;;5.63;3.10;;;14.80;99.90;;;;;;4885399;29;20048;-76
2023/06/14 01:22:30;;;;;;;8.07;3.75;;;14.70;99.90;;;;;;4906967;29;20100;-76
2023/06/14 01:24:57;;;;;;;5.97;2.90;;;14.70;99.90;;;;;;4890079;29;20056;-76
2023/06/14 01:27:28;;;;;;;8.48;4.47;;;14.70;99.90;;;;;;4890143;29;20044;-76
2023/06/14 01:30:00;;;;;;;7.00;3.58;;;14.70;99.90;;;;;;4892508;29;20495;-76
2023/06/14 01:32:29;;;;;;;6.43;3.50;;;14.70;99.90;;;;;;4881321;29;20505;-76
2023/06/14 01:34:56;;;;;;;8.80;3.75;;;14.70;99.90;;;;;;4889093;29;20051;-76
2023/06/14 01:37:28;;;;;;;8.93;4.15;;;14.60;99.90;;;;;;4875985;29;20052;-76
2023/06/14 01:39:55;;;;;;;7.13;3.60;;;14.60;99.90;;;;;;4887676;29;20092;-76
2023/06/14 01:42:23;;;;;;;8.52;4.05;;;14.60;99.90;;;;;;4889796;29;20056;-75
2023/06/14 01:44:53;;;;;;;7.63;4.20;;;14.60;99.90;;;;;;4900260;29;20441;-75
2023/06/14 01:47:20;;;;;;;6.90;3.60;;;14.50;99.90;;;;;;4869729;29;20460;-76
2023/06/14 01:49:48;;;;;;;9.75;3.90;;;14.50;99.90;;;;;;4878125;29;20048;-76
2023/06/14 01:52:15;;;;;;;9.07;3.65;;;14.50;99.90;;;;;;4886700;29;20048;-76
2023/06/14 01:54:43;;;;;;;8.60;4.10;;;14.40;99.90;;;;;;4892341;29;20115;-76
2023/06/14 01:57:10;;;;;;;8.25;4.30;;;14.40;99.90;;;;;;4870106;29;20131;-76
2023/06/14 01:59:37;;;;;;;9.43;4.05;;;14.40;99.90;;;;;;4893558;29;20092;-76
2023/06/14 02:02:05;;;;;;;12.32;4.97;;;14.40;99.90;;;;;;4900159;29;20076;-76
2023/06/14 02:04:32;;;;;;;8.30;4.28;;;14.40;99.90;;;;;;4903667;29;20051;-75
2023/06/14 02:06:59;;;;;;;7.75;3.67;;;14.30;99.90;;;;;;4885646;29;20067;-76
2023/06/14 02:09:27;;;;;;;10.35;4.65;;;14.40;99.90;;;;;;4891322;29;20052;-76
2023/06/14 02:11:54;;;;;;;11.38;4.80;;;14.40;99.90;;;;;;4891340;29;20064;-76
2023/06/14 02:14:21;;;;;;;10.35;4.88;;;14.40;99.90;;;;;;4899571;29;20052;-76
2023/06/14 02:16:49;;;;;;;9.93;4.75;;;14.40;99.90;;;;;;4888490;29;20060;-76
2023/06/14 02:19:16;;;;;;;9.85;4.60;;;14.40;99.90;;;;;;4901376;29;20056;-76
2023/06/14 02:21:44;;;;;;;10.85;4.75;;;14.30;99.90;;;;;;4893519;29;22820;-76
2023/06/14 02:24:13;;;;;;;10.05;4.22;;;14.30;99.90;;;;;;4883614;29;20072;-76
2023/06/14 02:26:43;;;;;;;10.57;4.78;;;14.30;99.90;;;;;;4874284;29;20144;-76
2023/06/14 02:29:14;;;;;;;10.00;4.72;;;14.30;99.90;;;;;;4876057;29;22809;-76
2023/06/14 02:31:42;;;;;;;11.07;4.90;;;14.20;99.90;;;;;;4901080;29;20051;-76
2023/06/14 02:34:09;;;;;;;8.93;4.50;;;14.20;99.90;;;;;;4871579;29;20060;-76
2023/06/14 02:36:41;;;;;;;8.80;4.55;;;14.20;99.90;;;;;;4869142;29;20165;-76
2023/06/14 02:39:09;;;;;;;;;;;14.20;99.90;;;;;;4890269;29;20051;-76
2023/06/14 02:41:37;;;;;;;10.07;4.72;;;14.20;99.90;;;;;;4890380;29;20018;-76
2023/06/14 02:44:04;;;;;;;13.68;5.57;;;14.20;99.90;;;;;;4885982;29;20051;-76
2023/06/14 02:46:31;;;;;;;11.13;4.93;;;14.20;99.90;;;;;;4896632;29;20041;-76
2023/06/14 02:48:59;;;;;;;10.00;5.05;;;14.20;99.90;;;;;;4895086;29;20048;-76
2023/06/14 02:51:26;;;;;;;12.50;5.85;;;14.20;99.90;;;;;;4870622;29;20068;-76
2023/06/14 02:53:54;;;;;;;12.30;5.18;;;14.20;99.90;;;;;;4877368;29;20230;-76
2023/06/14 02:56:22;;;;;;;12.50;6.03;;;14.20;99.90;;;;;;4897031;29;20044;-76
2023/06/14 02:58:50;;;;;;;8.57;5.25;;;14.10;99.90;;;;;;4902029;29;20550;-76
2023/06/14 03:01:20;;;;;;;13.25;5.53;;;14.10;99.90;;;;;;4888454;29;20055;-76
2023/06/14 03:03:47;;;;;;;11.00;5.45;;;14.10;99.90;;;;;;4871801;29;20143;-76
2023/06/14 03:06:16;;;;;;;13.23;5.38;;;14.10;99.90;;;;;;4883504;29;20059;-76
2023/06/14 03:08:45;;;;;;;13.98;5.45;;;14.10;99.90;;;;;;4887302;29;20191;-76
2023/06/14 03:11:16;;;;;;;10.63;5.07;;;14.10;99.90;;;;;;4897592;29;20495;-76
2023/06/14 03:13:45;;;;;;;13.52;5.72;;;14.10;99.90;;;;;;4872212;29;20063;-76
2023/06/14 03:16:12;;;;;;;13.25;5.65;;;14.10;99.90;;;;;;4883990;29;20139;-76
2023/06/14 03:18:40;;;;;;;10.32;5.07;;;14.20;99.90;;;;;;4903658;29;20052;-76
2023/06/14 03:21:08;;;;;;;13.13;5.63;;;14.10;99.90;;;;;;4874616;29;20060;-76
2023/06/14 03:23:38;;;;;;;14.82;6.45;;;14.10;99.90;;;;;;4889280;29;20415;-76
2023/06/14 03:26:06;;;;;;;11.93;5.88;;;14.10;99.90;;;;;;4895457;29;20044;-76
2023/06/14 03:28:33;;;;;;;12.80;5.70;;;14.10;99.90;;;;;;4884313;29;20407;-76
2023/06/14 03:31:01;;;;;;;15.75;5.97;;;14.10;99.90;;;;;;4904449;29;20052;-76
2023/06/14 03:33:31;;;;;;;12.25;5.22;;;14.10;99.90;;;;;;4886707;29;20151;-76
2023/06/14 03:35:58;;;;;;;12.68;5.30;;;14.10;99.90;;;;;;4888029;29;20037;-76
2023/06/14 03:38:27;;;;;;;13.45;6.38;;;14.10;99.90;;;;;;4898343;29;20075;-76
2023/06/14 03:40:54;;;;;;;12.43;6.22;;;14.20;99.90;;;;;;4878811;29;20130;-76
2023/06/14 03:43:22;;;;;;;13.25;5.40;;;14.20;99.90;;;;;;4866721;29;20059;-76
2023/06/14 03:45:49;;;;;;;12.70;5.40;;;14.20;99.90;;;;;;4899094;29;20104;-76
2023/06/14 03:48:17;;;;;;;12.40;5.30;;;14.30;99.90;;;;;;4887187;29;20041;-76
2023/06/14 03:50:45;;;;;;;11.32;5.95;;;14.30;99.90;;;;;;4894071;29;20469;-76
2023/06/14 03:53:12;;;;;;;13.20;5.07;;;14.30;99.90;;;;;;4904048;29;21788;-76
2023/06/14 03:55:43;;;;;;;13.15;5.50;;;14.40;99.90;;;;;;4889486;29;20401;-76
2023/06/14 03:58:13;;;;;;;12.85;5.88;;;14.40;99.90;;;;;;4889699;29;24135;-76
2023/06/14 04:00:40;;;;;;;10.07;5.70;;;14.50;99.90;;;;;;4901537;29;20175;-76
2023/06/14 04:03:07;;;;;;;12.77;5.95;;;14.60;99.90;;;;;;4889101;29;20064;-76
2023/06/14 04:05:35;;;;;;;11.10;5.60;;;14.60;99.90;;;;;;4878154;29;20112;-76
2023/06/14 04:08:04;;;;;;;10.63;5.20;;;14.70;99.90;;;;;;4888177;29;20131;-76
2023/06/14 04:10:31;;;;;;;12.45;5.50;;;14.70;99.90;;;;;;4896530;29;20056;-76
2023/06/14 04:12:59;;;;;;;12.02;5.55;;;14.70;99.90;;;;;;4902512;29;20535;-76
2023/06/14 04:15:30;;;;;;;11.82;5.10;;;14.80;99.90;;;;;;4882624;29;20067;-76
2023/06/14 04:17:58;;;;;;;10.00;4.70;;;14.80;99.90;;;;;;4890049;29;20055;-76
2023/06/14 04:20:26;;;;;;;10.48;4.93;;;14.80;99.90;;;;;;4896948;29;23477;-75
2023/06/14 04:22:53;;;;;;;10.57;5.55;;;14.90;99.90;;;;;;4894610;29;20051;-76
2023/06/14 04:25:20;;;;;;;9.45;4.90;;;14.90;99.90;;;;;;4891746;29;20075;-76
2023/06/14 04:27:52;;;;;;;10.07;4.97;;;15.10;99.90;;;;;;4895422;29;20058;-75
2023/06/14 04:30:25;;;;;;;9.18;4.60;;;15.10;99.90;;;;;;4881878;29;20052;-76
2023/06/14 04:32:55;;;;;;;10.15;5.00;;;15.10;99.90;;;;;;4877624;29;22775;-76
2023/06/14 04:35:23;;;;;;;11.88;5.68;;;15.20;99.90;;;;;;4887046;29;20036;-76
2023/06/14 04:37:53;;;;;;;12.65;5.22;;;15.30;99.90;;;;;;4886367;29;20064;-76
2023/06/14 04:40:21;;;;;;;12.73;4.70;;;15.20;99.90;;;;;;4902074;29;20051;-75
2023/06/14 04:42:48;;;;;;;9.90;4.55;;;15.40;99.90;;;;;;4870273;29;20589;-74
2023/06/14 04:45:17;;;;;;;9.88;4.57;;;15.50;99.90;;;;;;4892863;29;20163;-74
2023/06/14 04:47:46;;;;;;;11.48;4.45;;;15.50;99.90;;;;;;4872816;29;20056;-74
2023/06/14 04:50:13;;;;;;;9.02;4.20;;;15.40;99.90;;;;;;4892371;29;20052;-75
2023/06/14 04:52:40;;;;;;;11.57;5.13;;;15.50;99.90;;;;;;4891719;29;20063;-76
2023/06/14 04:55:10;;;;;;;8.27;4.00;;;15.60;99.90;;;;;;4885855;29;20048;-74
2023/06/14 04:57:38;;;;;;;9.48;4.10;;;15.70;99.90;;;;;;4883933;29;20131;-75
2023/06/14 05:00:06;;;;;;;9.05;4.53;;;15.80;99.90;;;;;;4872554;29;20045;-76
2023/06/14 05:02:35;;;;;;;10.52;4.63;;;15.80;99.90;;;;;;4893881;29;20056;-75
2023/06/14 05:05:07;;;;;;;8.40;4.05;;;15.90;99.90;;;;;;4889751;29;20056;-75
2023/06/14 05:07:34;;;;;;;10.25;4.18;;;16.10;99.90;;;;;;4894479;29;20064;-75
2023/06/14 05:10:02;;;;;;;9.10;4.30;;;16.00;99.90;;;;;;4890652;29;20041;-76
2023/06/14 05:12:29;;;;;;;8.65;4.03;;;16.20;99.90;;;;;;4897391;29;20052;-75
2023/06/14 05:14:58;;;;;;;9.30;3.80;;;16.40;99.90;;;;;;4896437;29;20060;-75
2023/06/14 05:17:27;;;;;;;7.43;3.33;;;16.50;99.90;;;;;;4889467;29;20048;-75
2023/06/14 05:19:55;;;;;;;7.80;4.07;;;16.50;99.90;;;;;;4897178;29;20056;-75
2023/06/14 05:22:22;;;;;;;7.38;3.55;;;16.80;99.90;;;;;;4886429;29;20135;-76
2023/06/14 05:24:50;;;;;;;9.18;4.28;;;16.90;99.90;;;;;;4894405;29;20061;-76
2023/06/14 05:27:17;;;;;;;7.75;3.83;;;17.00;99.90;;;;;;4897892;29;20543;-75
2023/06/14 05:29:45;;;;;;;9.07;4.13;;;17.00;99.90;;;;;;4875346;29;20061;-74
2023/06/14 05:32:12;;;;;;;12.18;3.80;;;17.10;99.40;;;;;;4898567;29;20066;-76
2023/06/14 05:34:39;;;;;;;8.70;4.10;;;17.20;99.40;;;;;;4870404;29;20063;-75
2023/06/14 05:37:07;;;;;;;6.78;3.83;;;17.20;98.80;;;;;;4896278;29;20508;-75
2023/06/14 05:39:34;;;;;;;6.15;3.03;;;17.30;98.80;;;;;;4901377;29;20064;-75
2023/06/14 05:42:01;;;;;;;6.30;3.35;;;17.60;98.40;;;;;;4871106;29;20056;-76
2023/06/14 05:44:28;;;;;;;7.57;3.67;;;17.70;97.70;;;;;;4869533;29;20070;-76
2023/06/14 05:46:55;;;;;;;9.10;3.78;;;17.80;98.60;;;;;;4889000;29;20532;-76
2023/06/14 05:49:22;;;;;;;8.57;3.92;;;17.80;97.30;;;;;;4879992;29;20063;-76
2023/06/14 05:51:50;;;;;;;8.55;4.22;;;17.70;96.80;;;;;;4901772;29;20096;-75
2023/06/14 05:54:17;;;;;;;8.50;3.83;;;17.90;97.10;;;;;;4862181;29;20508;-76
2023/06/14 05:56:44;;;;;;;8.32;4.72;;;18.00;96.00;;;;;;4848654;29;20048;-76
2023/06/14 05:59:11;;;;;;;7.68;3.85;;;18.10;96.70;;;;;;4845287;29;20052;-76
2023/06/14 06:01:40;;;;;;;9.18;3.95;;;18.30;96.90;;;;;;4865487;29;20059;-76
2023/06/14 06:04:07;;;;;;;6.55;3.78;;;18.40;97.20;;;;;;4852073;29;22349;-75
2023/06/14 06:06:35;;;;;;;5.75;3.00;;;18.60;96.10;;;;;;4851980;29;20059;-75
2023/06/14 06:09:02;;;;;;;6.13;2.88;;;18.70;95.20;;;;;;4841970;29;20079;-75
2023/06/14 06:11:29;;;;;;;5.45;2.90;;;18.80;94.80;;;;;;4833108;29;20192;-76
2023/06/14 06:14:14;;;;;;;6.00;3.00;;;18.80;94.40;;;;;;4846245;29;20053;-76
2023/06/14 06:16:41;;;;;;;5.85;3.95;;;18.90;94.40;;;;;;4860197;29;20048;-75
2023/06/14 06:19:09;;;;;;;5.97;3.20;;;19.00;94.50;;;;;;4867040;29;20184;-75
2023/06/14 06:21:36;;;;;;;5.07;2.78;;;19.10;93.90;;;;;;4868150;29;20052;-76
2023/06/14 06:24:05;;;;;;;8.70;3.75;;;19.20;94.30;;;;;;4849738;29;20184;-77
2023/06/14 06:26:32;;;;;;;5.38;3.13;;;19.20;93.60;;;;;;4855541;29;20134;-76
2023/06/14 06:28:59;;;;;;;5.90;2.63;;;19.40;94.00;;;;;;4844726;29;20048;-76
2023/06/14 06:31:27;;;;;;;6.10;3.20;;;19.50;93.60;;;;;;4870607;29;20530;-75
2023/06/14 06:33:55;;;;;;;7.78;3.80;;;19.60;92.80;;;;;;4863332;29;20202;-76
2023/06/14 06:36:22;;;;;;;6.07;2.95;;;19.70;93.70;;;;;;4847453;29;20048;-75
2023/06/14 06:38:49;;;;;;;8.25;3.88;;;19.70;92.80;;;;;;4846898;29;20545;-76
2023/06/14 06:41:16;;;;;;;7.60;3.35;;;19.80;92.60;;;;;;4865252;29;20044;-76
2023/06/14 06:43:43;;;;;;;7.55;3.33;;;19.90;92.50;;;;;;4854423;29;20056;-76
2023/06/14 06:46:11;;;;;;;8.00;4.18;;;19.90;92.90;;;;;;4848055;29;20640;-76
2023/06/14 06:48:38;;;;;;;5.45;2.70;;;20.00;93.50;;;;;;4856025;29;20056;-77
2023/06/14 06:51:05;;;;;;;5.50;3.30;;;20.20;92.70;;;;;;4844320;29;20056;-77
2023/06/14 06:53:32;;;;;;;6.05;2.95;;;20.30;91.00;;;;;;4863402;29;20064;-76
2023/06/14 06:56:10;;;;;;;5.95;3.00;;;20.40;90.80;;;;;;4864453;29;20512;-75
2023/06/14 06:58:37;;;;;;;7.60;3.63;;;20.50;90.90;;;;;;4847997;29;20085;-77
2023/06/14 07:01:04;;;;;;;4.70;2.65;;;20.60;90.20;;;;;;4854698;29;20090;-76
2023/06/14 07:03:31;;;;;;;6.43;2.70;;;20.80;90.10;;;;;;4850167;29;20056;-76
2023/06/14 07:05:59;;;;;;;6.53;3.13;;;21.10;89.60;;;;;;4863196;29;20060;-76
2023/06/14 07:08:27;;;;;;;5.75;2.95;;;21.20;89.80;;;;;;4864620;29;20064;-76
2023/06/14 07:10:55;;;;;;;4.57;2.65;;;21.50;90.80;;;;;;4845174;29;20416;-77
2023/06/14 07:13:22;;;;;;;4.65;2.47;;;21.40;87.70;;;;;;4839858;29;20062;-78
2023/06/14 07:15:50;;;;;;;6.47;2.97;;;21.00;88.00;;;;;;4848969;29;20131;-76
2023/06/14 07:18:18;;;;;;;4.55;2.20;;;21.20;88.90;;;;;;4848220;29;20056;-76
2023/06/14 07:20:45;;;;;;;5.72;2.45;;;21.10;87.80;;;;;;4856212;29;20056;-77
2023/06/14 07:23:12;;;;;;;4.55;2.38;;;20.70;86.60;;;;;;4876556;29;20500;-77
2023/06/14 07:25:39;;;;;;;5.50;2.65;;;20.50;86.90;;;;;;4862480;29;20056;-77
2023/06/14 07:28:07;;;;;;;5.00;2.47;;;20.20;88.10;;;;;;4855626;29;20048;-77
2023/06/14 07:30:35;;;;;;;9.27;3.50;;;20.20;89.40;;;;;;4841359;29;20044;-77
2023/06/14 07:33:02;;;;;;;4.82;3.08;;;20.10;90.60;;;;;;4869200;29;20567;-77
2023/06/14 07:35:30;;;;;;;5.75;3.33;;;20.00;90.40;;;;;;4859214;29;20124;-79
2023/06/14 07:37:57;;;;;;;5.35;2.83;;;20.00;90.50;;;;;;4862933;29;20524;-79
2023/06/14 07:40:24;;;;;;;7.85;3.00;;;20.10;90.40;;;;;;4879824;29;20919;-78
2023/06/14 07:42:54;;;;;;;8.75;3.80;;;20.10;89.50;;;;;;4857673;29;20713;-78
2023/06/14 07:45:21;;;;;;;4.95;2.92;;;20.20;89.60;;;;;;4847220;29;20330;-79
2023/06/14 07:47:48;;;;;;;4.88;2.67;;;20.20;88.40;;;;;;4846069;29;20544;-78
2023/06/14 07:50:16;;;;;;;4.20;2.42;;;20.10;89.80;;;;;;4849205;29;20364;-78
2023/06/14 07:52:45;;;;;;;5.50;2.78;;;20.00;90.00;;;;;;4863313;29;20048;-79
2023/06/14 07:55:12;;;;;;;4.47;2.63;;;19.80;87.60;;;;;;4830960;29;20726;-79
2023/06/14 07:57:39;;;;;;;6.47;2.83;;;19.80;88.90;;;;;;4861583;29;20041;-79
2023/06/14 08:00:07;;;;;;;4.28;2.35;;;19.90;90.10;;;;;;4860137;29;20050;-79
2023/06/14 08:02:40;;;;;;;5.47;2.45;;;19.90;90.40;;;;;;4852091;29;20063;-78
2023/06/14 08:05:08;;;;;;;6.95;2.83;;;20.00;88.80;;;;;;4849304;29;20396;-76
2023/06/14 08:07:35;;;;;;;5.60;3.15;;;20.40;88.40;;;;;;4862028;29;20526;-77
2023/06/14 08:10:06;;;;;;;4.85;2.75;;;20.80;88.80;;;;;;4852526;29;20055;-76
2023/06/14 08:12:34;;;;;;;3.25;2.20;;;21.20;89.50;;;;;;4847744;29;20098;-77
2023/06/14 08:15:03;;;;;;;4.18;2.58;;;21.10;83.90;;;;;;4858877;29;20488;-76
2023/06/14 08:17:42;;;;;;;5.60;2.78;;;21.50;86.00;;;;;;4876589;29;20040;-77
2023/06/14 08:20:10;;;;;;;5.00;2.65;;;21.70;86.00;;;;;;4860502;29;20139;-76
2023/06/14 08:22:39;;;;;;;4.22;2.25;;;21.60;84.30;;;;;;4853800;29;20071;-77
2023/06/14 08:25:07;;;;;;;5.32;2.50;;;21.70;88.00;;;;;;4845486;29;20139;-77
2023/06/14 08:27:34;;;;;;;3.78;2.08;;;21.70;84.50;;;;;;4856921;29;20107;-77
2023/06/14 08:30:03;;;;;;;5.55;2.15;;;21.80;83.40;;;;;;4864318;29;20059;-77
2023/06/14 08:32:30;;;;;;;5.07;2.00;;;21.60;80.10;;;;;;4848644;29;20120;-76
2023/06/14 08:34:57;;;;;;;4.72;1.95;;;21.70;82.70;;;;;;4862660;29;20108;-77
2023/06/14 08:37:33;;;;;;;3.75;2.00;;;21.80;80.60;;;;;;4862904;29;20048;-77
2023/06/14 08:40:00;;;;;;;4.35;2.75;;;22.00;80.50;;;;;;4865436;29;20064;-76
2023/06/14 08:42:32;;;;;;;3.88;1.85;;;22.00;79.90;;;;;;4856831;29;20453;-77
2023/06/14 08:44:59;;;;;;;4.32;2.22;;;21.80;78.90;;;;;;4842735;29;20065;-76
2023/06/14 08:47:29;;;;;;;3.42;2.17;;;21.90;80.80;;;;;;4865727;29;20073;-77
2023/06/14 08:49:58;;;;;;;3.42;1.88;;;21.70;80.40;;;;;;4877438;29;20052;-77
2023/06/14 08:52:30;;;;;;;3.10;2.08;;;21.60;81.30;;;;;;4856551;29;20524;-77
2023/06/14 08:54:57;;;;;;;4.10;1.85;;;21.50;81.10;;;;;;4848679;29;20723;-77
2023/06/14 08:57:25;;;;;;;4.78;1.98;;;21.40;82.00;;;;;;4848441;29;20217;-77
2023/06/14 08:59:53;;;;;;;5.07;2.00;;;21.40;80.00;;;;;;4864466;29;20479;-77
2023/06/14 09:02:22;;;;;;;3.28;1.80;;;21.40;79.70;;;;;;4860952;29;20127;-76
2023/06/14 09:04:49;;;;;;;4.07;2.65;;;21.60;81.50;;;;;;4848367;29;22364;-77
2023/06/14 09:07:17;;;;;;;4.75;2.03;;;22.00;78.10;;;;;;4864088;29;20036;-77
2023/06/14 09:09:44;;;;;;;4.00;1.90;;;22.00;77.60;;;;;;4858254;29;20079;-77
2023/06/14 09:12:31;;;;;;;5.60;2.00;;;22.10;78.10;;;;;;4855777;29;20069;-77
2023/06/14 09:14:58;;;;;;;5.20;2.00;;;22.00;78.60;;;;;;4866831;29;20049;-77
2023/06/14 09:17:26;;;;;;;4.20;2.15;;;21.90;78.90;;;;;;4856776;29;20159;-77
2023/06/14 09:19:55;;;;;;;5.25;2.00;;;21.90;75.50;;;;;;4863189;29;20060;-76
2023/06/14 09:22:22;;;;;;;3.17;2.00;;;22.10;78.90;;;;;;4863610;29;21969;-77
2023/06/14 09:24:50;;;;;;;8.02;2.83;;;21.80;78.10;;;;;;4853280;29;20055;-77
2023/06/14 09:27:17;;;;;;;3.35;1.92;;;21.70;78.50;;;;;;4865510;29;20501;-77
2023/06/14 09:29:44;;;;;;;7.18;2.28;;;21.60;81.20;;;;;;4853182;29;20055;-77
2023/06/14 09:32:11;;;;;;;5.90;1.95;;;21.50;77.90;;;;;;4860960;29;20053;-77
2023/06/14 09:34:38;;;;;;;7.88;1.80;;;21.40;78.10;;;;;;4856877;29;20123;-78
2023/06/14 09:37:06;;;;;;;4.13;1.65;;;21.30;78.90;;;;;;4848780;29;20053;-78
2023/06/14 09:39:33;;;;;;;5.05;1.75;;;21.30;79.30;;;;;;4850185;29;20196;-78
2023/06/14 09:42:00;;;;;;;4.82;1.77;;;21.20;78.60;;;;;;4862884;29;20050;-78
2023/06/14 09:44:28;;;;;;;4.55;1.48;;;21.20;78.70;;;;;;4873349;29;20055;-78
2023/06/14 09:46:56;;;;;;;3.75;1.65;;;21.20;77.00;;;;;;4853370;29;20519;-78
2023/06/14 09:49:25;;;;;;;4.03;1.95;;;21.20;77.60;;;;;;4842183;29;20299;-78
2023/06/14 09:51:55;;;;;;;5.43;2.05;;;21.20;77.30;;;;;;4854346;29;20060;-78
2023/06/14 09:54:24;;;;;;;2.30;0.90;;;21.20;78.10;;;;;;4848819;29;20180;-78
2023/06/14 09:56:51;;;;;;;4.40;1.63;;;21.30;75.80;;;;;;4876404;29;20147;-78
2023/06/14 09:59:31;;;;;;;3.00;1.40;;;21.30;76.50;;;;;;4850438;29;22365;-78
2023/06/14 10:02:04;;;;;;;2.88;1.48;;;21.80;77.50;;;;;;4850195;29;20171;-78
2023/06/14 10:04:33;;;;;;;4.65;1.35;;;22.00;74.10;;;;;;4834164;29;20706;-78
2023/06/14 10:07:02;;;;;;;6.72;1.92;;;22.30;74.90;;;;;;4848971;29;20171;-78
2023/06/14 10:09:30;;;;;;;3.92;1.95;;;22.40;77.00;;;;;;4864143;29;20167;-78
2023/06/14 10:11:59;;;;;;;3.33;1.35;;;22.50;76.70;;;;;;4853216;29;20056;-78
2023/06/14 10:14:27;;;;;;;2.78;1.52;;;22.40;74.90;;;;;;4869434;29;20045;-78
2023/06/14 10:17:09;;;;;;;3.67;1.25;;;22.40;73.60;;;;;;4853900;29;20049;-78
2023/06/14 10:19:54;;;;;;;4.10;1.58;;;22.50;71.70;;;;;;4853762;29;20056;-78
2023/06/14 10:22:41;;;;;;;2.25;1.30;;;22.50;71.40;;;;;;4852089;29;20420;-78
2023/06/14 10:25:13;;;;;;;2.80;1.20;;;22.50;70.30;;;;;;4868633;29;20049;-78
2023/06/14 10:27:45;;;;;;;3.47;1.30;;;22.50;68.10;;;;;;4835443;29;22606;-78
2023/06/14 10:30:15;;;;;;;3.17;1.08;;;22.40;67.30;;;;;;4846804;29;20052;-78
2023/06/14 10:33:10;;;;;;;5.13;1.42;;;22.60;68.70;;;;;;4854185;29;20082;-78
2023/06/14 10:35:37;;;;;;;2.30;1.25;;;22.70;68.20;;;;;;4844947;29;20169;-79
2023/06/14 10:38:09;;;;;;;2.13;1.00;;;23.00;72.30;;;;;;4844100;29;20525;-78
2023/06/14 10:40:36;;;;;;;1.67;0.95;;;23.00;66.70;;;;;;4844507;29;20509;-79
2023/06/14 10:43:24;;;;;;;1.55;0.85;;;23.00;66.00;;;;;;4844007;29;20048;-78
2023/06/14 10:46:18;;;;;;;2.55;0.98;;;23.00;68.10;;;;;;4841106;29;20097;-79
2023/06/14 10:48:45;;;;;;;3.30;1.58;;;23.00;67.50;;;;;;4861206;29;20195;-78
2023/06/14 10:51:21;;;;;;;3.25;1.60;;;22.90;65.60;;;;;;4862855;29;20044;-79
2023/06/14 10:53:49;;;;;;;1.80;1.10;;;22.90;66.00;;;;;;4849563;29;20465;-79
2023/06/14 10:56:47;;;;;;;4.07;1.00;;;23.00;65.30;;;;;;4846267;29;20047;-78
2023/06/14 10:59:15;;;;;;;2.63;1.27;;;23.20;65.30;;;;;;4847098;29;20565;-79
2023/06/14 11:02:11;;;;;;;3.45;1.55;;;23.10;64.50;;;;;;4867059;29;20108;-81
2023/06/14 11:04:53;;;;;;;3.70;1.48;;;23.20;64.50;;;;;;4872151;29;20188;-79
2023/06/14 11:07:48;;;;;;;2.20;1.33;;;23.00;65.40;;;;;;4861222;29;20235;-80
2023/06/14 11:10:37;;;;;;;3.13;1.95;;;22.90;66.40;;;;;;4876383;29;20381;-80
2023/06/14 11:13:05;;;;;;;2.67;1.40;;;22.70;66.30;;;;;;4848811;29;20056;-79
2023/06/14 11:15:33;;;;;;;4.03;1.58;;;22.80;66.30;;;;;;4842498;29;20060;-80
2023/06/14 11:18:09;;;;;;;3.75;1.95;;;22.70;66.10;;;;;;4850268;29;20647;-79
2023/06/14 11:20:39;;;;;;;5.43;1.70;;;22.70;67.00;;;;;;4846598;29;20539;-79
2023/06/14 11:23:06;;;;;;;5.15;2.00;;;22.60;65.10;;;;;;4852393;29;20470;-79
2023/06/14 11:25:33;;;;;;;3.00;1.30;;;22.70;65.90;;;;;;4858862;29;20048;-78
2023/06/14 11:28:00;;;;;;;2.80;1.40;;;22.60;66.40;;;;;;4862848;29;20704;-79
2023/06/14 11:30:28;;;;;;;2.20;1.25;;;22.90;66.40;;;;;;4847048;29;20110;-79
2023/06/14 11:32:55;;;;;;;2.90;1.52;;;23.00;68.40;;;;;;4852154;29;20194;-79
2023/06/14 11:35:26;;;;;;;3.42;1.38;;;23.10;66.80;;;;;;4860406;29;20052;-80
2023/06/14 11:37:57;;;;;;;4.50;1.35;;;23.00;62.60;;;;;;4848289;29;20052;-78
2023/06/14 11:40:26;;;;;;;4.97;1.85;;;23.00;66.00;;;;;;4862680;29;20882;-80
2023/06/14 11:43:01;;;;;;;2.60;1.40;;;22.80;63.10;;;;;;4845504;29;20052;-79
2023/06/14 11:45:30;;;;;;;5.45;1.52;;;22.80;66.10;;;;;;4860343;29;21218;-79
2023/06/14 11:47:58;;;;;;;3.20;1.95;;;22.90;66.60;;;;;;4860248;29;22444;-79
2023/06/14 11:50:27;;;;;;;3.45;1.20;;;23.00;66.90;;;;;;4856319;29;20049;-78
2023/06/14 11:53:06;;;;;;;3.42;1.60;;;22.90;62.40;;;;;;4836778;29;20072;-78
2023/06/14 11:55:38;;;;;;;3.25;1.20;;;22.90;63.70;;;;;;4840131;29;20564;-79
2023/06/14 11:58:05;;;;;;;3.53;1.50;;;22.80;60.70;;;;;;4844250;29;20059;-79
2023/06/14 12:00:35;;;;;;;2.90;1.15;;;22.80;61.90;;;;;;4875984;29;21066;-78
2023/06/14 12:03:03;;;;;;;2.85;1.55;;;22.80;62.60;;;;;;4862285;29;20056;-79
2023/06/14 12:05:30;;;;;;;4.88;1.80;;;22.80;64.20;;;;;;4834352;29;20048;-78
2023/06/14 12:08:03;;;;;;;2.85;1.48;;;22.80;65.50;;;;;;4853916;29;20484;-78
2023/06/14 12:10:38;;;;;;;2.03;1.20;;;22.90;65.70;;;;;;4858702;29;20052;-78
2023/06/14 12:13:06;;;;;;;3.05;1.45;;;23.00;65.70;;;;;;4858055;29;20434;-79
2023/06/14 12:15:34;;;;;;;3.17;1.48;;;23.10;65.20;;;;;;4866687;29;20128;-78
2023/06/14 12:18:06;;;;;;;3.38;1.45;;;23.20;66.70;;;;;;4871030;29;20184;-79
2023/06/14 12:20:35;;;;;;;5.20;1.45;;;23.10;63.90;;;;;;4873859;29;20207;-79
2023/06/14 12:23:03;;;;;;;1.90;1.20;;;23.30;66.30;;;;;;4856009;29;20060;-78
2023/06/14 12:25:33;;;;;;;2.33;1.35;;;23.20;64.40;;;;;;4856647;29;20575;-79
2023/06/14 12:28:08;;;;;;;2.15;1.33;;;23.20;66.00;;;;;;4869184;29;20060;-79
2023/06/14 12:30:36;;;;;;;1.17;0.93;;;23.20;66.00;;;;;;4846658;29;20040;-79
2023/06/14 12:33:04;;;;;;;1.88;1.10;;;23.00;63.70;;;;;;4859415;29;20566;-79
2023/06/14 12:35:32;;;;;;;3.28;1.27;;;23.00;63.80;;;;;;4853035;29;20812;-79
2023/06/14 12:37:59;;;;;;;2.58;1.13;;;23.10;62.10;;;;;;4867984;29;20052;-80
2023/06/14 12:40:26;;;;;;;4.85;1.50;;;23.00;58.60;;;;;;4858322;29;20588;-79
2023/06/14 12:42:53;;;;;;;3.85;1.33;;;23.10;60.20;;;;;;4853909;29;20766;-80
2023/06/14 12:45:20;;;;;;;2.85;1.10;;;23.20;62.30;;;;;;4840130;29;20061;-80
2023/06/14 12:47:47;;;;;;;3.30;1.23;;;23.20;61.30;;;;;;4883765;29;22433;-80
2023/06/14 12:50:15;;;;;;;2.75;1.67;;;23.30;61.00;;;;;;4863540;29;20049;-80
2023/06/14 12:52:42;;;;;;;2.25;1.27;;;23.30;61.00;;;;;;4875751;29;20068;-79
2023/06/14 12:55:10;;;;;;;5.38;1.90;;;23.40;60.60;;;;;;4880206;29;20127;-80
2023/06/14 12:57:37;;;;;;;3.20;1.20;;;23.40;60.40;;;;;;4868144;29;20072;-80